Time;durP1;ratioP1;P1;durP2;ratioP2;P2;SDS_P1;SDS_P2;PMS_P1;PMS_P2;Temp;Humidity;BMP_temperature;BMP_pressure;BME280_temperature;BME280_humidity;BME280_pressure;Samples;Min_cycle;Max_cycle;Signal;HPM_P1;HPM_P2
2023/06/07 00:01:55;;;;;;;20.60;7.25;;;;;;;-144.73;100.00;54204.50;5034184;28;20112;-70
2023/06/07 00:04:21;;;;;;;34.03;8.60;;;;;;;-144.73;100.00;54169.63;5034521;28;20031;-70
2023/06/07 00:06:47;;;;;;;23.30;7.35;;;;;;;-144.73;100.00;54222.97;5034182;28;20035;-70
2023/06/07 00:09:13;;;;;;;20.60;7.15;;;;;;;-144.73;100.00;54202.44;5034571;28;20144;-69
2023/06/07 00:11:39;;;;;;;26.45;6.80;;;;;;;-144.73;100.00;54218.88;5034665;28;20056;-70
2023/06/07 00:14:05;;;;;;;32.95;8.20;;;;;;;-144.73;100.00;54194.25;5034672;28;20036;-70
2023/06/07 00:16:32;;;;;;;29.30;7.60;;;;;;;-144.73;100.00;54175.78;5035069;28;20021;-69
2023/06/07 00:18:58;;;;;;;27.52;7.38;;;;;;;-144.73;100.00;54222.97;5038114;28;20052;-69
2023/06/07 00:21:24;;;;;;;23.77;7.55;;;;;;;-144.73;100.00;54210.66;5037701;28;20036;-70
2023/06/07 00:23:50;;;;;;;27.08;9.27;;;;;;;-144.73;100.00;54231.19;5038094;28;20479;-70
2023/06/07 00:26:15;;;;;;;18.80;7.45;;;;;;;-144.73;100.00;54192.19;5037947;28;20025;-70
2023/06/07 00:28:41;;;;;;;28.13;8.68;;;;;;;-144.73;100.00;54190.13;5037787;28;20036;-69
2023/06/07 00:31:06;;;;;;;26.35;7.13;;;;;;;-144.73;100.00;54181.94;5037991;28;20017;-69
2023/06/07 00:33:32;;;;;;;25.67;7.30;;;;;;;-144.73;100.00;54206.56;5038056;28;20037;-69
2023/06/07 00:35:58;;;;;;;38.15;8.70;;;;;;;-144.73;100.00;54202.44;5038000;28;20025;-70
2023/06/07 00:38:23;;;;;;;29.10;7.43;;;;;;;-144.73;100.00;54216.81;5036692;28;20113;-70
2023/06/07 00:40:49;;;;;;;30.23;8.27;;;;;;;-144.73;100.00;54222.97;5037784;28;20025;-69
2023/06/07 00:43:15;;;;;;;26.30;6.80;;;;;;;-144.73;100.00;54214.78;5036860;28;20099;-70
2023/06/07 00:45:40;;;;;;;30.50;8.32;;;;;;;-144.73;100.00;54216.81;5037619;28;20048;-70
2023/06/07 00:48:05;;;;;;;27.80;7.70;;;;;;;-144.73;100.00;54225.03;5037097;28;20041;-70
2023/06/07 00:50:31;;;;;;;33.55;7.28;;;;;;;-144.73;100.00;54239.41;5038167;28;20056;-70
2023/06/07 00:52:56;;;;;;;25.55;8.27;;;;;;;-144.73;100.00;54190.13;5037389;28;20037;-69
2023/06/07 00:55:22;;;;;;;27.13;7.25;;;;;;;-144.73;100.00;54225.03;5037907;28;20020;-70
2023/06/07 00:57:47;;;;;;;26.38;7.07;;;;;;;-144.73;100.00;54214.78;5036684;28;20040;-70
2023/06/07 01:00:15;;;;;;;31.50;7.55;;;;;;;-144.73;100.00;54183.97;5037754;28;20017;-69
2023/06/07 01:02:41;;;;;;;37.95;8.40;;;;;;;-144.73;100.00;54208.63;5036995;28;20037;-70
2023/06/07 01:05:07;;;;;;;25.40;7.85;;;;;;;-144.73;100.00;54218.88;5037854;28;20020;-70
2023/06/07 01:07:32;;;;;;;28.17;9.00;;;;;;;-144.73;100.00;54194.25;5036808;28;20032;-70
2023/06/07 01:10:01;;;;;;;29.08;8.60;;;;;;;-144.73;100.00;54208.63;5054333;28;20052;-70
2023/06/07 01:12:28;;;;;;;29.25;7.38;;;;;;;-144.73;100.00;54206.56;5036897;28;20128;-69
2023/06/07 01:14:54;;;;;;;22.40;7.60;;;;;;;-144.73;100.00;54214.78;5036901;28;20055;-69
2023/06/07 01:17:24;;;;;;;25.20;7.28;;;;;;;-144.73;100.00;54181.94;5036627;28;20093;-71
2023/06/07 01:19:53;;;;;;;33.55;8.73;;;;;;;-144.73;100.00;54231.19;5037532;28;20025;-69
2023/06/07 01:22:27;;;;;;;26.58;7.50;;;;;;;-144.73;100.00;54186.03;5036619;28;20036;-70
2023/06/07 01:24:55;;;;;;;27.05;8.20;;;;;;;-144.73;100.00;54202.44;5037166;28;20088;-69
2023/06/07 01:27:27;;;;;;;30.15;7.30;;;;;;;-144.73;100.00;54276.34;5035794;28;20395;-70
2023/06/07 01:29:54;;;;;;;32.10;8.70;;;;;;;-144.73;100.00;54233.25;5036317;28;20044;-70
2023/06/07 01:32:21;;;;;;;33.90;7.63;;;;;;;-144.73;100.00;54202.44;5035884;28;20079;-68
2023/06/07 01:34:48;;;;;;;23.90;8.43;;;;;;;-144.73;100.00;54214.78;5036681;28;20025;-69
2023/06/07 01:37:14;;;;;;;48.00;9.73;;;;;;;-144.73;100.00;54216.81;5036237;28;20121;-69
2023/06/07 01:39:41;;;;;;;29.80;7.97;;;;;;;-144.73;100.00;54214.78;5037313;28;20496;-70
2023/06/07 01:42:09;;;;;;;30.85;7.95;;;;;;;-144.73;100.00;54214.78;5052767;28;20404;-69
2023/06/07 01:44:37;;;;;;;27.45;9.00;;;;;;;-144.73;100.00;54198.34;5036580;28;20017;-70
2023/06/07 01:47:03;;;;;;;32.10;8.65;;;;;;;-144.73;100.00;54179.88;5036005;28;20425;-70
2023/06/07 01:49:28;;;;;;;29.55;7.88;;;;;;;-144.73;100.00;54210.66;5036069;28;20105;-70
2023/06/07 01:51:53;;;;;;;29.55;7.85;;;;;;;-144.73;100.00;54190.13;5052703;28;20029;-70
2023/06/07 01:54:19;;;;;;;31.38;8.65;;;;;;;-144.73;100.00;54237.34;5036291;28;20036;-68
2023/06/07 01:57:23;;;;;;;39.47;9.77;;;;;;;-144.73;100.00;54227.09;5036127;28;20032;-68
2023/06/07 02:00:13;;;;;;;27.27;8.18;;;;;;;-144.73;100.00;54214.78;5036693;28;20048;-69
2023/06/07 02:02:46;;;;;;;28.90;9.18;;;;;;;-144.73;100.00;54247.59;5052452;28;20029;-69
2023/06/07 02:05:17;;;;;;;28.90;7.93;;;;;;;-144.73;100.00;54251.72;5036250;28;20028;-68
2023/06/07 02:07:50;;;;;;;;;;;;;;;-144.73;100.00;54227.09;5035964;28;20036;-69
2023/06/07 02:10:23;;;;;;;40.00;8.73;;;;;;;-144.73;100.00;54247.59;5035992;28;19908;-68
2023/06/07 02:12:52;;;;;;;31.80;8.25;;;;;;;-144.73;100.00;54251.72;5036062;28;20112;-69
2023/06/07 02:15:17;;;;;;;30.00;8.40;;;;;;;-144.73;100.00;54206.56;5036096;28;20114;-69
2023/06/07 02:18:01;;;;;;;35.45;9.13;;;;;;;-144.73;100.00;54210.66;5035091;28;20061;-69
2023/06/07 02:20:33;;;;;;;53.53;9.65;;;;;;;-144.73;100.00;54190.13;5036140;28;20017;-69
2023/06/07 02:22:58;;;;;;;35.75;8.30;;;;;;;-144.73;100.00;54231.19;5035398;28;20496;-68
2023/06/07 02:25:24;;;;;;;31.05;7.90;;;;;;;-144.73;100.00;54259.91;5035812;28;20032;-68
2023/06/07 02:27:50;;;;;;;33.90;8.60;;;;;;;-144.73;100.00;54218.88;5035214;28;20025;-69
2023/06/07 02:30:16;;;;;;;36.08;8.32;;;;;;;-144.73;100.00;54227.09;5035759;28;20021;-69
2023/06/07 02:32:45;;;;;;;34.10;8.45;;;;;;;-144.73;100.00;54231.19;5035523;28;20116;-68
2023/06/07 02:35:11;;;;;;;41.65;9.55;;;;;;;-144.73;100.00;54206.56;5036075;28;20017;-69
2023/06/07 02:37:43;;;;;;;29.50;8.02;;;;;;;-144.73;100.00;54247.59;5035155;28;20029;-69
2023/06/07 02:40:09;;;;;;;32.20;8.00;;;;;;;-144.73;100.00;54235.28;5034371;28;20025;-69
2023/06/07 02:42:38;;;;;;;34.78;9.65;;;;;;;-144.73;100.00;54214.78;5034830;28;20047;-68
2023/06/07 02:45:04;;;;;;;34.72;9.95;;;;;;;-144.73;100.00;54194.25;5035342;28;20036;-68
2023/06/07 02:47:30;;;;;;;45.67;12.00;;;;;;;-144.73;100.00;54202.44;5035087;28;20029;-69
2023/06/07 02:49:56;;;;;;;38.97;9.98;;;;;;;-144.73;100.00;54239.41;5035424;28;20037;-69
2023/06/07 02:52:22;;;;;;;42.55;9.73;;;;;;;-144.73;100.00;54198.34;5051633;28;20060;-69
2023/06/07 02:54:48;;;;;;;33.15;9.20;;;;;;;-144.73;100.00;54210.66;5035742;28;20112;-69
2023/06/07 02:57:14;;;;;;;44.75;9.38;;;;;;;-144.73;100.00;54214.78;5034566;28;20130;-69
2023/06/07 02:59:40;;;;;;;35.17;8.43;;;;;;;-144.73;100.00;54231.19;5035569;28;20036;-69
2023/06/07 03:02:06;;;;;;;52.42;9.20;;;;;;;-144.73;100.00;54227.09;5034174;28;20059;-69
2023/06/07 03:04:31;;;;;;;44.33;9.63;;;;;;;-144.73;100.00;54235.28;5035248;28;20119;-69
2023/06/07 03:06:58;;;;;;;29.30;9.25;;;;;;;-144.73;100.00;54222.97;5035145;28;20037;-70
2023/06/07 03:09:24;;;;;;;46.47;9.88;;;;;;;-144.73;100.00;54214.78;5035716;28;20035;-70
2023/06/07 03:11:49;;;;;;;60.97;9.63;;;;;;;-144.73;100.00;54218.88;5034816;28;20112;-69
2023/06/07 03:14:17;;;;;;;49.88;9.63;;;;;;;-144.73;100.00;54227.09;5034917;28;20028;-70
2023/06/07 03:16:44;;;;;;;42.78;9.68;;;;;;;-144.73;100.00;54239.41;5034463;28;20044;-70
2023/06/07 03:19:10;;;;;;;45.40;9.55;;;;;;;-144.73;100.00;54212.72;5035046;28;20024;-69
2023/06/07 03:21:37;;;;;;;37.03;8.82;;;;;;;-144.73;100.00;54202.44;5034405;28;20063;-69
2023/06/07 03:24:04;;;;;;;42.45;9.32;;;;;;;-144.73;100.00;54247.59;5034553;28;20161;-69
2023/06/07 03:26:29;;;;;;;53.00;9.13;;;;;;;-144.73;100.00;54210.66;5034717;28;20028;-70
2023/06/07 03:28:54;;;;;;;48.33;8.80;;;;;;;-144.73;100.00;54247.59;5034484;28;20013;-70
2023/06/07 03:31:19;;;;;;;39.78;9.80;;;;;;;-144.73;100.00;54190.13;5035022;28;20021;-70
2023/06/07 03:33:45;;;;;;;36.67;8.25;;;;;;;-144.73;100.00;54222.97;5034569;28;20076;-69
2023/06/07 03:36:11;;;;;;;36.83;8.93;;;;;;;-144.73;100.00;54241.44;5034250;28;20024;-70
2023/06/07 03:38:37;;;;;;;43.42;9.98;;;;;;;-144.73;100.00;54251.72;5034195;28;20174;-70
2023/06/07 03:41:02;;;;;;;41.65;9.95;;;;;;;-144.73;100.00;54259.91;5034639;28;20495;-69
2023/06/07 03:43:27;;;;;;;51.88;8.73;;;;;;;-144.73;100.00;54239.41;5034282;28;20056;-70
2023/06/07 03:45:53;;;;;;;42.33;9.15;;;;;;;-144.73;100.00;54227.09;5035063;28;20040;-70
2023/06/07 03:48:18;;;;;;;44.47;9.60;;;;;;;-144.73;100.00;54227.09;5034613;28;20055;-69
2023/06/07 03:50:43;;;;;;;40.67;9.32;;;;;;;-144.73;100.00;54245.56;5034143;28;20063;-69
2023/06/07 03:53:09;;;;;;;43.17;10.07;;;;;;;-144.73;100.00;54233.25;5037707;28;20091;-70
2023/06/07 03:55:34;;;;;;;53.30;10.15;;;;;;;-144.73;100.00;54257.88;5038823;28;20033;-70
2023/06/07 03:58:00;;;;;;;40.13;9.27;;;;;;;-144.73;100.00;54235.28;5038324;28;20033;-69
2023/06/07 04:00:27;;;;;;;41.47;8.32;;;;;;;-144.73;100.00;54257.88;5038509;28;20028;-70
2023/06/07 04:02:53;;;;;;;33.20;8.65;;;;;;;-144.73;100.00;54239.41;5037852;28;20033;-69
2023/06/07 04:05:19;;;;;;;47.33;9.05;;;;;;;-144.73;100.00;54243.50;5038870;28;20033;-70
2023/06/07 04:07:47;;;;;;;56.70;10.95;;;;;;;-144.73;100.00;54276.34;5038414;28;20147;-70
2023/06/07 04:10:13;;;;;;;29.48;9.23;;;;;;;-144.73;100.00;54218.88;5037498;28;20039;-69
2023/06/07 04:12:38;;;;;;;34.72;10.18;;;;;;;-144.73;100.00;54235.28;5038400;28;20044;-70
2023/06/07 04:15:03;;;;;;;33.67;8.88;;;;;;;-144.73;100.00;54280.44;5038288;28;20035;-71
2023/06/07 04:17:29;;;;;;;30.98;9.25;;;;;;;-144.73;100.00;54235.28;5038573;28;20124;-69
2023/06/07 04:19:56;;;;;;;45.15;9.35;;;;;;;-144.73;100.00;54243.50;5038929;28;20056;-70
2023/06/07 04:22:22;;;;;;;47.47;9.88;;;;;;;-144.73;100.00;54239.41;5037827;28;20041;-70
2023/06/07 04:24:49;;;;;;;37.30;9.02;;;;;;;-144.73;100.00;54235.28;5038490;28;20021;-69
2023/06/07 04:27:17;;;;;;;29.02;8.13;;;;;;;-144.73;100.00;54214.78;5037697;28;20075;-69
2023/06/07 04:29:43;;;;;;;47.05;10.25;;;;;;;-144.73;100.00;54259.91;5038365;28;20351;-69
2023/06/07 04:32:09;;;;;;;40.20;9.55;;;;;;;-144.73;100.00;54276.34;5037938;28;20064;-69
2023/06/07 04:34:41;;;;;;;42.88;9.52;;;;;;;-144.73;100.00;54218.88;5038235;28;20029;-69
2023/06/07 04:37:08;;;;;;;46.55;9.63;;;;;;;-144.73;100.00;54276.34;5038044;28;20498;-69
2023/06/07 04:39:36;;;;;;;51.40;10.15;;;;;;;-144.73;100.00;54264.03;5038605;28;20017;-70
2023/06/07 04:42:05;;;;;;;34.80;8.10;;;;;;;-144.73;100.00;54251.72;5037297;28;20037;-70
2023/06/07 04:44:30;;;;;;;30.50;7.93;;;;;;;-144.73;100.00;54235.28;5037943;28;20040;-70
2023/06/07 04:46:57;;;;;;;31.25;8.25;;;;;;;-144.73;100.00;54255.81;5037956;28;20036;-70
2023/06/07 04:49:23;;;;;;;32.67;8.10;;;;;;;-144.73;100.00;54264.03;5038015;28;20036;-70
2023/06/07 04:51:50;;;;;;;41.47;11.02;;;;;;;-144.73;100.00;54214.78;5036912;28;20033;-70
2023/06/07 04:54:16;;;;;;;29.55;8.35;;;;;;;-144.73;100.00;54239.41;5038217;28;20111;-71
2023/06/07 04:56:42;;;;;;;33.47;10.38;;;;;;;-144.73;100.00;54251.72;5037471;28;20443;-70
2023/06/07 04:59:08;;;;;;;38.22;9.25;;;;;;;-144.73;100.00;54266.06;5037375;28;20044;-70
2023/06/07 05:01:34;;;;;;;31.38;9.10;;;;;;;-144.73;100.00;54239.41;5036892;28;20024;-69
2023/06/07 05:04:02;;;;;;;33.38;8.43;;;;;;;-144.73;100.00;54259.91;5037684;28;20051;-70
2023/06/07 05:06:28;;;;;;;39.13;10.75;;;;;;;-144.73;100.00;54276.34;5037768;28;20033;-70
2023/06/07 05:08:55;;;;;;;53.50;10.93;;;;;;;-144.73;100.00;54251.72;5037879;28;20070;-69
2023/06/07 05:11:20;;;;;;;35.97;10.13;;;;;;;-144.73;100.00;54247.59;5038513;28;20032;-69
2023/06/07 05:13:46;;;;;;;39.95;12.90;;;;;;;-144.73;100.00;54249.66;5038300;28;20029;-69
2023/06/07 05:16:16;;;;;;;34.42;11.55;;;;;;;-144.73;100.00;54255.81;5037676;28;20037;-70
2023/06/07 05:18:48;;;;;;;34.42;12.50;;;;;;;-144.73;100.00;54218.88;5038161;28;20040;-70
2023/06/07 05:21:15;;;;;;;46.80;14.35;;;;;;;-144.73;100.00;54235.28;5037532;28;20067;-70
2023/06/07 05:23:41;;;;;;;50.05;12.60;;;;;;;-144.73;100.00;54243.50;5037032;28;20032;-70
2023/06/07 05:26:07;;;;;;;38.03;12.27;;;;;;;-144.73;100.00;54202.44;5036882;28;20032;-70
2023/06/07 05:28:32;;;;;;;43.25;14.38;;;;;;;-144.73;100.00;54276.34;5036956;28;20033;-70
2023/06/07 05:30:58;;;;;;;47.40;14.10;;;;;;;-144.73;100.00;54214.78;5038316;28;20116;-71
2023/06/07 05:33:25;;;;;;;40.60;13.55;;;;;;;-144.73;100.00;54259.91;5037189;28;20033;-70
2023/06/07 05:35:50;;;;;;;35.67;13.68;;;;;;;-144.73;100.00;54264.03;5037709;28;20028;-70
2023/06/07 05:38:16;;;;;;;37.60;13.73;;;;;;;-144.73;100.00;54229.13;5036190;28;20033;-70
2023/06/07 05:40:41;;;;;;;34.63;12.40;;;;;;;-144.73;100.00;54239.41;5036421;28;20120;-70
2023/06/07 05:43:07;;;;;;;43.20;13.55;;;;;;;-144.73;100.00;54253.75;5036180;28;20033;-70
2023/06/07 05:45:32;;;;;;;31.95;11.70;;;;;;;-144.73;100.00;54247.59;5036308;28;20039;-70
2023/06/07 05:47:57;;;;;;;35.33;13.52;;;;;;;-144.73;100.00;54280.44;5037211;28;20029;-70
2023/06/07 05:50:23;;;;;;;31.17;12.43;;;;;;;-144.73;100.00;54231.19;5037392;28;20052;-70
2023/06/07 05:52:56;;;;;;;36.65;13.23;;;;;;;-144.73;100.00;54251.72;5036374;28;20041;-70
2023/06/07 05:55:23;;;;;;;35.38;13.38;;;;;;;-144.73;100.00;54235.28;5037266;28;20545;-70
2023/06/07 05:57:49;;;;;;;37.75;12.60;;;;;;;-144.73;100.00;54231.19;5036014;28;20036;-70
2023/06/07 06:00:16;;;;;;;37.17;13.35;;;;;;;-144.73;100.00;54259.91;5036714;28;20025;-70
2023/06/07 06:02:45;;;;;;;37.45;13.02;;;;;;;-144.73;100.00;54253.75;5036519;28;20028;-70
2023/06/07 06:05:11;;;;;;;34.80;12.02;;;;;;;-144.73;100.00;54280.44;5037244;28;20023;-70
2023/06/07 06:07:36;;;;;;;27.55;12.13;;;;;;;-144.73;100.00;54278.41;5045640;28;20025;-70
2023/06/07 06:10:04;;;;;;;22.35;10.68;;;;;;;-144.73;100.00;54210.66;5050030;28;20037;-70
2023/06/07 06:12:30;;;;;;;27.63;9.80;;;;;;;-144.73;100.00;54235.28;5051892;28;20048;-70
2023/06/07 06:14:55;;;;;;;30.38;12.65;;;;;;;-144.73;100.00;54243.50;5051744;28;20024;-70
2023/06/07 06:17:21;;;;;;;19.40;10.07;;;;;;;-144.73;100.00;54251.72;5051528;28;20033;-70
2023/06/07 06:19:47;;;;;;;26.42;11.10;;;;;;;-144.73;100.00;54222.97;5052543;28;20035;-70
2023/06/07 06:22:12;;;;;;;25.75;9.82;;;;;;;-144.73;100.00;54231.19;5051432;28;20020;-70
2023/06/07 06:24:38;;;;;;;20.33;9.55;;;;;;;-144.73;100.00;54261.97;5050796;28;20075;-70
2023/06/07 06:27:03;;;;;;;20.58;10.45;;;;;;;-144.73;100.00;54342.03;5048759;28;20116;-70
2023/06/07 06:29:29;;;;;;;24.15;11.57;;;;;;;-144.73;100.00;54231.19;5051606;28;20067;-69
2023/06/07 06:31:55;;;;;;;19.02;9.43;;;;;;;-144.73;100.00;54231.19;5070179;28;20075;-70
2023/06/07 06:34:20;;;;;;;19.58;9.70;;;;;;;-144.73;100.00;54292.75;5069679;28;20020;-70
2023/06/07 06:36:46;;;;;;;24.08;10.32;;;;;;;-144.73;100.00;54194.25;5051250;28;20055;-70
2023/06/07 06:39:12;;;;;;;16.25;10.05;;;;;;;-144.73;100.00;54342.03;5049889;28;20024;-70
2023/06/07 06:41:38;;;;;;;21.98;11.40;;;;;;;-144.73;100.00;54251.72;5051790;28;20094;-70
2023/06/07 06:44:03;;;;;;;17.55;9.98;;;;;;;-144.73;100.00;54276.34;5071321;28;20028;-69
2023/06/07 06:46:29;;;;;;;16.38;9.32;;;;;;;-144.73;100.00;54259.91;5052276;28;20029;-69
2023/06/07 06:48:54;;;;;;;20.30;9.00;;;;;;;-144.73;100.00;54231.19;5054046;28;20048;-70
2023/06/07 06:51:20;;;;;;;12.35;7.50;;;;;;;-144.73;100.00;54227.09;5054331;28;20059;-72
2023/06/07 06:53:46;;;;;;;15.05;7.68;;;;;;;-144.73;100.00;54243.50;5030729;28;20022;-72
2023/06/07 06:56:11;;;;;;;11.10;7.53;;;;;;;-144.73;100.00;54342.03;5033495;28;20124;-69
2023/06/07 06:58:37;;;;;;;13.73;6.70;;;;;;;-144.73;98.92;54280.44;5050631;28;20029;-72
2023/06/07 07:01:04;;;;;;;13.93;6.47;;;;;;;-144.73;99.96;54222.97;5068238;28;20570;-71
2023/06/07 07:03:30;;;;;;;15.15;7.90;;;;;;;-144.73;100.00;54220.94;5050840;28;20036;-70
2023/06/07 07:05:56;;;;;;;15.75;7.53;;;;;;;-144.73;100.00;54247.59;5068790;28;20031;-71
2023/06/07 07:08:21;;;;;;;18.50;7.32;;;;;;;-144.73;100.00;54214.78;5051261;28;20104;-71
2023/06/07 07:10:47;;;;;;;13.05;7.90;;;;;;;-144.73;97.08;54235.28;5068948;28;20020;-71
2023/06/07 07:13:14;;;;;;;25.48;8.02;;;;;;;-144.73;98.81;54231.19;5060743;28;20059;-71
2023/06/07 07:15:40;;;;;;;12.38;6.90;;;;;;;-144.73;97.52;54255.81;5067135;28;20024;-69
2023/06/07 07:18:07;;;;;;;13.02;8.18;;;;;;;-144.73;99.38;54286.59;5057843;28;20112;-70
2023/06/07 07:20:33;;;;;;;19.35;8.80;;;;;;;-144.73;97.74;54206.56;5062844;28;20024;-70
2023/06/07 07:23:01;;;;;;;12.98;7.32;;;;;;;-144.73;96.18;54235.28;5068953;28;20033;-70
2023/06/07 07:25:27;;;;;;;13.30;7.10;;;;;;;-144.73;93.44;54247.59;5069245;28;20487;-69
2023/06/07 07:27:53;;;;;;;15.15;7.55;;;;;;;-144.73;92.41;54181.94;5051558;28;20036;-70
2023/06/07 07:30:18;;;;;;;15.35;7.13;;;;;;;-144.73;90.07;54210.66;5050411;28;20050;-71
2023/06/07 07:32:43;;;;;;;10.68;6.63;;;;;;;-144.73;88.42;54202.44;5049887;28;20438;-71
2023/06/07 07:35:09;;;;;;;10.13;6.10;;;;;;;-144.73;86.98;54202.44;5068958;28;20023;-71
2023/06/07 07:37:35;;;;;;;10.45;5.40;;;;;;;-144.73;84.27;54186.03;5066682;28;20036;-71
2023/06/07 07:40:00;;;;;;;11.32;5.00;;;;;;;-144.73;83.78;54210.66;5049126;28;20028;-72
2023/06/07 07:42:26;;;;;;;9.48;5.47;;;;;;;-144.73;83.75;54194.25;5066429;28;20037;-71
2023/06/07 07:44:52;;;;;;;13.32;5.38;;;;;;;-144.73;82.16;54181.94;5045939;28;20021;-71
2023/06/07 07:47:17;;;;;;;12.15;4.75;;;;;;;-144.73;79.84;54198.34;5047760;28;20113;-71
2023/06/07 07:49:43;;;;;;;9.18;4.63;;;;;;;-144.73;78.45;54177.81;5049249;28;20020;-72
2023/06/07 07:52:08;;;;;;;17.95;5.45;;;;;;;-144.73;74.10;54218.88;5049649;28;20041;-71
2023/06/07 07:54:33;;;;;;;8.65;4.30;;;;;;;-144.73;71.85;54227.09;5068662;28;20019;-71
2023/06/07 07:56:59;;;;;;;11.57;4.97;;;;;;;-144.73;73.04;54177.81;5046953;28;20123;-71
2023/06/07 07:59:24;;;;;;;13.25;5.22;;;;;;;-144.73;73.21;54177.81;5068967;28;20082;-71
2023/06/07 08:01:49;;;;;;;11.65;5.03;;;;;;;-144.73;73.69;54186.03;5050682;28;20032;-72
2023/06/07 08:04:15;;;;;;;13.45;5.38;;;;;;;-144.73;71.45;54202.44;5062442;28;20144;-72
2023/06/07 08:06:40;;;;;;;10.40;4.53;;;;;;;-144.73;70.21;54190.13;5065868;28;20029;-72
2023/06/07 08:09:06;;;;;;;17.33;5.22;;;;;;;-144.73;68.07;54214.78;5053698;28;20012;-73
2023/06/07 08:11:31;;;;;;;12.43;6.05;;;;;;;-144.73;66.00;54206.56;5050241;28;20040;-72
2023/06/07 08:13:57;;;;;;;13.75;5.43;;;;;;;-144.73;66.53;54181.94;5051001;28;20021;-72
2023/06/07 08:16:22;;;;;;;12.90;6.43;;;;;;;-144.73;64.90;54222.97;5065765;28;20040;-72
2023/06/07 08:18:54;;;;;;;11.50;5.30;;;;;;;-144.73;65.75;54202.44;5050463;28;20021;-72
2023/06/07 08:21:19;;;;;;;17.83;5.78;;;;;;;-144.73;66.59;54202.44;5050509;28;20543;-72
2023/06/07 08:23:45;;;;;;;10.45;5.15;;;;;;;-144.73;64.70;54198.34;5068343;28;20032;-72
2023/06/07 08:26:10;;;;;;;21.50;5.95;;;;;;;-144.73;64.30;54186.03;5048874;28;20079;-72
2023/06/07 08:28:36;;;;;;;13.38;4.85;;;;;;;-144.73;63.36;54186.03;5067983;28;20021;-72
2023/06/07 08:31:01;;;;;;;20.63;5.15;;;;;;;-144.73;64.02;54206.56;5068320;28;20028;-73
2023/06/07 08:33:27;;;;;;;14.48;5.30;;;;;;;-144.73;65.10;54188.09;5050056;28;20112;-72
2023/06/07 08:35:52;;;;;;;13.90;6.38;;;;;;;-144.73;62.74;54181.94;5068321;28;20039;-72
2023/06/07 08:38:17;;;;;;;31.33;5.32;;;;;;;-144.73;64.24;54194.25;5069772;28;20060;-72
2023/06/07 08:40:43;;;;;;;11.57;6.07;;;;;;;-144.73;65.39;54194.25;5053368;28;20024;-72
2023/06/07 08:43:08;;;;;;;21.63;6.78;;;;;;;-144.73;64.00;54173.72;5053751;28;20115;-72
2023/06/07 08:45:33;;;;;;;20.85;5.72;;;;;;;-144.73;62.98;54190.13;5053668;28;20039;-72
2023/06/07 08:48:06;;;;;;;14.23;6.55;;;;;;;-144.73;63.59;54194.25;5053717;28;20063;-72
2023/06/07 08:50:32;;;;;;;18.52;6.55;;;;;;;-144.73;62.95;54181.94;5054365;28;20063;-72
2023/06/07 08:53:03;;;;;;;21.50;6.47;;;;;;;-144.73;63.87;54177.81;5071095;28;20499;-72
2023/06/07 08:55:30;;;;;;;17.57;5.47;;;;;;;-144.73;62.82;54190.13;5052238;28;20104;-72
2023/06/07 08:57:56;;;;;;;11.82;5.43;;;;;;;-144.73;60.93;54188.09;5050515;28;20021;-72
2023/06/07 09:00:23;;;;;;;20.60;6.25;;;;;;;-144.73;60.44;54202.44;5069089;28;20090;-73
2023/06/07 09:02:51;;;;;;;23.88;6.43;;;;;;;-144.73;59.42;54186.03;5070869;28;20021;-73
2023/06/07 09:05:17;;;;;;;25.60;6.65;;;;;;;-144.73;60.08;54190.13;5052323;28;20487;-72
2023/06/07 09:07:43;;;;;;;33.47;7.22;;;;;;;-144.73;59.55;54161.41;5071005;28;20493;-72
2023/06/07 09:10:08;;;;;;;16.30;5.45;;;;;;;-144.73;60.15;54190.13;5053388;28;20024;-72
2023/06/07 09:12:34;;;;;;;26.52;7.15;;;;;;;-144.73;60.12;54190.13;5053195;28;20082;-72
2023/06/07 09:14:59;;;;;;;23.88;6.65;;;;;;;-144.73;59.39;54179.88;5053657;28;20029;-73
2023/06/07 09:17:52;;;;;;;23.50;6.25;;;;;;;-144.73;56.64;54157.31;5053344;28;20068;-73
2023/06/07 09:20:28;;;;;;;20.02;6.13;;;;;;;-144.73;59.28;54175.78;5052953;28;20028;-72
2023/06/07 09:23:14;;;;;;;17.90;5.80;;;;;;;-144.73;58.39;54161.41;5071281;28;20036;-72
2023/06/07 09:25:43;;;;;;;21.23;6.22;;;;;;;-144.73;57.82;54161.41;5071011;28;20026;-72
2023/06/07 09:28:10;;;;;;;25.67;6.57;;;;;;;-144.73;61.29;54173.72;5053014;28;20025;-72
2023/06/07 09:30:51;;;;;;;18.70;6.80;;;;;;;-144.73;60.03;54145.00;5070796;28;20527;-72
2023/06/07 09:33:30;;;;;;;19.30;7.03;;;;;;;-144.73;58.29;54165.50;5069988;28;20108;-73
2023/06/07 09:36:09;;;;;;;20.02;6.57;;;;;;;-144.73;59.59;54157.31;5071613;28;20082;-72
2023/06/07 09:38:38;;;;;;;18.98;6.35;;;;;;;-144.73;58.53;54190.13;5052815;28;20071;-72
2023/06/07 09:41:05;;;;;;;16.58;6.40;;;;;;;-144.73;58.17;54128.56;5071382;28;20511;-72
2023/06/07 09:43:50;;;;;;;21.73;5.88;;;;;;;-144.73;56.59;54190.13;5068367;28;20132;-72
2023/06/07 09:46:19;;;;;;;19.05;6.22;;;;;;;-144.73;57.42;54181.94;5070935;28;20027;-72
2023/06/07 09:48:51;;;;;;;16.30;6.43;;;;;;;-144.73;56.86;54149.09;5067834;28;20012;-72
2023/06/07 09:51:21;;;;;;;22.65;6.45;;;;;;;-144.73;55.86;54161.41;5061589;28;20503;-72
2023/06/07 09:53:55;;;;;;;23.05;5.90;;;;;;;-144.73;54.24;54173.72;5070175;28;20028;-73
2023/06/07 09:56:22;;;;;;;17.40;6.05;;;;;;;-144.73;54.34;54157.31;5052276;28;20034;-73
2023/06/07 09:59:10;;;;;;;28.27;7.15;;;;;;;-144.73;52.84;54108.03;5052943;28;20020;-73
2023/06/07 10:01:42;;;;;;;21.38;6.75;;;;;;;-144.73;51.16;54145.00;5050960;28;20403;-73
2023/06/07 10:04:08;;;;;;;18.17;5.78;;;;;;;-144.73;52.85;54163.47;5054220;28;20024;-71
2023/06/07 10:06:38;;;;;;;27.98;6.10;;;;;;;-144.73;50.95;54165.50;5051065;28;20024;-73
2023/06/07 10:09:05;;;;;;;19.92;6.90;;;;;;;-144.73;50.18;54149.09;5052408;28;20016;-73
2023/06/07 10:11:35;;;;;;;19.08;7.30;;;;;;;-144.73;51.53;54165.50;5048904;28;20025;-73
2023/06/07 10:14:10;;;;;;;17.83;6.93;;;;;;;-144.73;50.96;54157.31;5052573;28;20027;-73
2023/06/07 10:16:36;;;;;;;24.20;7.13;;;;;;;-144.73;49.52;54175.78;5051695;28;20036;-73
2023/06/07 10:19:36;;;;;;;20.90;7.18;;;;;;;-144.73;49.49;54132.69;5049822;28;20052;-73
2023/06/07 10:22:04;;;;;;;28.73;6.80;;;;;;;-144.73;51.21;54145.00;5044378;28;20093;-73
2023/06/07 10:24:36;;;;;;;16.27;6.43;;;;;;;-144.73;50.34;54145.00;5051846;28;20056;-73
2023/06/07 10:27:13;;;;;;;14.98;5.90;;;;;;;-144.73;48.37;54186.03;5049112;28;20373;-73
2023/06/07 10:29:48;;;;;;;14.68;5.97;;;;;;;-144.73;48.12;54165.50;5052331;28;20024;-73
2023/06/07 10:32:21;;;;;;;18.45;6.07;;;;;;;-144.73;48.87;54153.19;5051615;28;20029;-73
2023/06/07 10:34:48;;;;;;;14.82;5.82;;;;;;;-144.73;48.24;54132.69;5052166;28;20033;-73
2023/06/07 10:37:17;;;;;;;19.17;5.70;;;;;;;-144.73;47.21;54145.00;5068895;28;20041;-73
2023/06/07 10:39:43;;;;;;;16.67;5.55;;;;;;;-144.73;46.74;54161.41;5052114;28;20107;-73
2023/06/07 10:42:10;;;;;;;27.52;5.85;;;;;;;-144.73;46.04;54145.00;5051631;28;20107;-73
2023/06/07 10:44:37;;;;;;;19.70;5.72;;;;;;;-144.73;46.23;54157.31;5052063;28;20048;-73
2023/06/07 10:47:20;;;;;;;16.80;6.10;;;;;;;-144.73;45.97;54132.69;5068195;28;20055;-74
2023/06/07 10:49:46;;;;;;;16.55;6.05;;;;;;;-144.73;44.99;54173.72;5051370;28;20070;-73
2023/06/07 10:52:14;;;;;;;18.48;6.40;;;;;;;-144.73;46.39;54149.09;5051589;28;20434;-73
2023/06/07 10:54:41;;;;;;;13.05;6.07;;;;;;;-144.73;46.16;54149.09;5051734;28;20020;-73
2023/06/07 10:57:07;;;;;;;23.48;6.63;;;;;;;-144.73;45.34;54122.41;5051202;28;20039;-73
2023/06/07 10:59:33;;;;;;;19.85;6.68;;;;;;;-144.73;44.21;54136.78;5069799;28;20020;-73
2023/06/07 11:02:23;;;;;;;16.15;6.32;;;;;;;-144.73;42.63;54101.88;5072231;28;20031;-72
2023/06/07 11:04:57;;;;;;;20.67;6.55;;;;;;;-144.73;43.40;54116.25;5056234;28;20028;-73
2023/06/07 11:07:23;;;;;;;25.98;6.82;;;;;;;-144.73;43.85;54145.00;5072993;28;20052;-73